sensor_id;sensor_type;location;lat;lon;timestamp;P1;durP1;ratioP1;P2;durP2;ratioP2
67185;SDS011;54116;53.518;49.398;2022-09-03T00:01:33;18.70;;;7.18;;
67185;SDS011;54116;53.518;49.398;2022-09-03T00:04:07;17.65;;;6.78;;
67185;SDS011;54116;53.518;49.398;2022-09-03T00:06:46;14.43;;;6.57;;
67185;SDS011;54116;53.518;49.398;2022-09-03T00:14:40;18.73;;;6.68;;
67185;SDS011;54116;53.518;49.398;2022-09-03T00:17:09;21.10;;;7.70;;
67185;SDS011;54116;53.518;49.398;2022-09-03T00:22:32;14.43;;;6.45;;
67185;SDS011;54116;53.518;49.398;2022-09-03T00:25:02;17.73;;;6.45;;
67185;SDS011;54116;53.518;49.398;2022-09-03T00:27:32;18.27;;;7.47;;
67185;SDS011;54116;53.518;49.398;2022-09-03T00:30:08;14.82;;;6.65;;
67185;SDS011;54116;53.518;49.398;2022-09-03T00:32:44;15.63;;;6.15;;
67185;SDS011;54116;53.518;49.398;2022-09-03T00:35:22;16.02;;;6.22;;
67185;SDS011;54116;53.518;49.398;2022-09-03T00:37:50;18.90;;;6.85;;
67185;SDS011;54116;53.518;49.398;2022-09-03T00:40:26;16.02;;;6.47;;
67185;SDS011;54116;53.518;49.398;2022-09-03T00:43:03;19.15;;;6.85;;
67185;SDS011;54116;53.518;49.398;2022-09-03T00:48:32;17.92;;;6.82;;
67185;SDS011;54116;53.518;49.398;2022-09-03T00:56:36;17.20;;;6.43;;
67185;SDS011;54116;53.518;49.398;2022-09-03T01:02:23;16.52;;;6.55;;
67185;SDS011;54116;53.518;49.398;2022-09-03T01:05:16;13.43;;;6.15;;
67185;SDS011;54116;53.518;49.398;2022-09-03T01:16:25;16.83;;;6.63;;
67185;SDS011;54116;53.518;49.398;2022-09-03T01:21:47;13.73;;;6.22;;
67185;SDS011;54116;53.518;49.398;2022-09-03T01:30:24;17.10;;;6.65;;
67185;SDS011;54116;53.518;49.398;2022-09-03T01:33:06;16.33;;;6.88;;
67185;SDS011;54116;53.518;49.398;2022-09-03T01:35:46;14.00;;;6.28;;
67185;SDS011;54116;53.518;49.398;2022-09-03T01:43:34;18.63;;;7.53;;
67185;SDS011;54116;53.518;49.398;2022-09-03T01:46:12;19.45;;;8.57;;
67185;SDS011;54116;53.518;49.398;2022-09-03T01:51:28;22.80;;;8.00;;
67185;SDS011;54116;53.518;49.398;2022-09-03T01:59:41;16.60;;;7.03;;
67185;SDS011;54116;53.518;49.398;2022-09-03T02:02:23;18.70;;;6.78;;
67185;SDS011;54116;53.518;49.398;2022-09-03T02:05:11;16.80;;;6.80;;
67185;SDS011;54116;53.518;49.398;2022-09-03T02:10:12;18.48;;;7.20;;
67185;SDS011;54116;53.518;49.398;2022-09-03T02:12:47;16.60;;;7.38;;
67185;SDS011;54116;53.518;49.398;2022-09-03T02:15:19;19.42;;;7.50;;
67185;SDS011;54116;53.518;49.398;2022-09-03T02:17:48;17.58;;;7.25;;
67185;SDS011;54116;53.518;49.398;2022-09-03T02:20:20;17.65;;;6.22;;
67185;SDS011;54116;53.518;49.398;2022-09-03T02:22:48;16.80;;;7.05;;
67185;SDS011;54116;53.518;49.398;2022-09-03T02:25:15;15.80;;;7.40;;
67185;SDS011;54116;53.518;49.398;2022-09-03T02:27:42;16.67;;;7.78;;
67185;SDS011;54116;53.518;49.398;2022-09-03T02:30:10;20.42;;;8.38;;
67185;SDS011;54116;53.518;49.398;2022-09-03T02:32:36;19.00;;;8.15;;
67185;SDS011;54116;53.518;49.398;2022-09-03T02:35:03;19.38;;;7.75;;
67185;SDS011;54116;53.518;49.398;2022-09-03T02:37:29;17.33;;;8.05;;
67185;SDS011;54116;53.518;49.398;2022-09-03T02:39:55;16.98;;;8.63;;
67185;SDS011;54116;53.518;49.398;2022-09-03T02:42:22;18.67;;;7.88;;
67185;SDS011;54116;53.518;49.398;2022-09-03T02:44:52;18.05;;;8.40;;
67185;SDS011;54116;53.518;49.398;2022-09-03T02:47:22;20.35;;;8.23;;
67185;SDS011;54116;53.518;49.398;2022-09-03T02:49:49;18.15;;;8.60;;
67185;SDS011;54116;53.518;49.398;2022-09-03T02:52:16;21.65;;;7.75;;
67185;SDS011;54116;53.518;49.398;2022-09-03T02:54:42;18.90;;;8.65;;
67185;SDS011;54116;53.518;49.398;2022-09-03T02:57:11;17.20;;;8.15;;
67185;SDS011;54116;53.518;49.398;2022-09-03T02:59:38;16.17;;;7.57;;
67185;SDS011;54116;53.518;49.398;2022-09-03T03:02:08;15.75;;;7.85;;
67185;SDS011;54116;53.518;49.398;2022-09-03T03:04:36;16.40;;;7.47;;
67185;SDS011;54116;53.518;49.398;2022-09-03T03:07:03;17.05;;;7.60;;
67185;SDS011;54116;53.518;49.398;2022-09-03T03:09:30;15.23;;;7.53;;
67185;SDS011;54116;53.518;49.398;2022-09-03T03:11:56;17.55;;;6.63;;
67185;SDS011;54116;53.518;49.398;2022-09-03T03:14:22;15.55;;;6.80;;
67185;SDS011;54116;53.518;49.398;2022-09-03T03:16:49;12.75;;;6.10;;
67185;SDS011;54116;53.518;49.398;2022-09-03T03:19:16;13.45;;;6.00;;
67185;SDS011;54116;53.518;49.398;2022-09-03T03:21:42;13.45;;;6.13;;
67185;SDS011;54116;53.518;49.398;2022-09-03T03:24:09;13.32;;;5.88;;
67185;SDS011;54116;53.518;49.398;2022-09-03T03:26:35;13.30;;;5.80;;
67185;SDS011;54116;53.518;49.398;2022-09-03T03:29:02;13.15;;;5.80;;
67185;SDS011;54116;53.518;49.398;2022-09-03T03:31:29;13.65;;;6.20;;
67185;SDS011;54116;53.518;49.398;2022-09-03T03:33:57;13.65;;;5.78;;
67185;SDS011;54116;53.518;49.398;2022-09-03T03:36:26;12.73;;;5.18;;
67185;SDS011;54116;53.518;49.398;2022-09-03T03:38:56;10.95;;;5.13;;
67185;SDS011;54116;53.518;49.398;2022-09-03T03:41:24;10.00;;;5.10;;
67185;SDS011;54116;53.518;49.398;2022-09-03T03:44:02;10.82;;;5.25;;
67185;SDS011;54116;53.518;49.398;2022-09-03T03:46:31;11.68;;;4.65;;
67185;SDS011;54116;53.518;49.398;2022-09-03T03:49:03;10.93;;;4.75;;
67185;SDS011;54116;53.518;49.398;2022-09-03T03:51:34;12.63;;;4.60;;
67185;SDS011;54116;53.518;49.398;2022-09-03T03:54:00;12.85;;;4.82;;
67185;SDS011;54116;53.518;49.398;2022-09-03T03:56:27;10.73;;;4.65;;
67185;SDS011;54116;53.518;49.398;2022-09-03T03:58:54;11.05;;;5.10;;
67185;SDS011;54116;53.518;49.398;2022-09-03T04:01:22;12.18;;;5.82;;
67185;SDS011;54116;53.518;49.398;2022-09-03T04:03:50;11.15;;;4.88;;
67185;SDS011;54116;53.518;49.398;2022-09-03T04:06:19;11.90;;;5.43;;
67185;SDS011;54116;53.518;49.398;2022-09-03T04:08:46;13.18;;;5.22;;
67185;SDS011;54116;53.518;49.398;2022-09-03T04:11:15;11.88;;;5.78;;
67185;SDS011;54116;53.518;49.398;2022-09-03T04:13:44;12.50;;;5.57;;
67185;SDS011;54116;53.518;49.398;2022-09-03T04:16:12;13.32;;;5.80;;
67185;SDS011;54116;53.518;49.398;2022-09-03T04:18:41;12.30;;;6.30;;
67185;SDS011;54116;53.518;49.398;2022-09-03T04:21:11;17.55;;;5.93;;
67185;SDS011;54116;53.518;49.398;2022-09-03T04:23:40;14.45;;;6.60;;
67185;SDS011;54116;53.518;49.398;2022-09-03T04:26:09;14.77;;;6.70;;
67185;SDS011;54116;53.518;49.398;2022-09-03T04:28:36;14.82;;;6.57;;
67185;SDS011;54116;53.518;49.398;2022-09-03T04:31:07;12.88;;;7.07;;
67185;SDS011;54116;53.518;49.398;2022-09-03T04:33:36;11.57;;;6.13;;
67185;SDS011;54116;53.518;49.398;2022-09-03T04:36:11;13.10;;;6.15;;
67185;SDS011;54116;53.518;49.398;2022-09-03T04:38:39;12.43;;;5.97;;
67185;SDS011;54116;53.518;49.398;2022-09-03T04:41:08;13.65;;;6.32;;
67185;SDS011;54116;53.518;49.398;2022-09-03T04:43:37;12.77;;;7.45;;
67185;SDS011;54116;53.518;49.398;2022-09-03T04:46:04;18.02;;;7.95;;
67185;SDS011;54116;53.518;49.398;2022-09-03T04:48:32;14.98;;;7.70;;
67185;SDS011;54116;53.518;49.398;2022-09-03T04:51:01;15.43;;;6.95;;
67185;SDS011;54116;53.518;49.398;2022-09-03T04:53:38;14.13;;;6.68;;
67185;SDS011;54116;53.518;49.398;2022-09-03T04:56:13;9.90;;;3.97;;
67185;SDS011;54116;53.518;49.398;2022-09-03T04:58:42;7.72;;;3.20;;
67185;SDS011;54116;53.518;49.398;2022-09-03T05:01:19;9.50;;;3.78;;
67185;SDS011;54116;53.518;49.398;2022-09-03T05:03:46;9.57;;;3.83;;
67185;SDS011;54116;53.518;49.398;2022-09-03T05:06:13;12.10;;;4.93;;
67185;SDS011;54116;53.518;49.398;2022-09-03T05:08:42;11.38;;;5.32;;
67185;SDS011;54116;53.518;49.398;2022-09-03T05:11:15;17.58;;;8.23;;
67185;SDS011;54116;53.518;49.398;2022-09-03T05:13:42;13.50;;;7.18;;
67185;SDS011;54116;53.518;49.398;2022-09-03T05:16:10;27.58;;;14.35;;
67185;SDS011;54116;53.518;49.398;2022-09-03T05:18:37;31.30;;;19.05;;
67185;SDS011;54116;53.518;49.398;2022-09-03T05:21:08;33.88;;;19.33;;
67185;SDS011;54116;53.518;49.398;2022-09-03T05:23:39;49.30;;;29.33;;
67185;SDS011;54116;53.518;49.398;2022-09-03T05:26:08;42.67;;;25.02;;
67185;SDS011;54116;53.518;49.398;2022-09-03T05:28:40;36.33;;;20.77;;
67185;SDS011;54116;53.518;49.398;2022-09-03T05:31:11;34.20;;;18.70;;
67185;SDS011;54116;53.518;49.398;2022-09-03T05:33:41;33.63;;;19.20;;
67185;SDS011;54116;53.518;49.398;2022-09-03T05:36:16;33.63;;;18.92;;
67185;SDS011;54116;53.518;49.398;2022-09-03T05:38:44;32.50;;;16.13;;
67185;SDS011;54116;53.518;49.398;2022-09-03T05:41:12;26.58;;;15.13;;
67185;SDS011;54116;53.518;49.398;2022-09-03T05:43:39;30.00;;;15.70;;
67185;SDS011;54116;53.518;49.398;2022-09-03T05:46:07;35.35;;;17.35;;
67185;SDS011;54116;53.518;49.398;2022-09-03T05:48:38;35.75;;;18.75;;
67185;SDS011;54116;53.518;49.398;2022-09-03T05:51:09;43.17;;;25.67;;
67185;SDS011;54116;53.518;49.398;2022-09-03T05:53:38;38.10;;;21.73;;
67185;SDS011;54116;53.518;49.398;2022-09-03T05:56:06;64.00;;;37.35;;
67185;SDS011;54116;53.518;49.398;2022-09-03T05:58:41;65.57;;;39.00;;
67185;SDS011;54116;53.518;49.398;2022-09-03T06:01:10;64.30;;;39.78;;
67185;SDS011;54116;53.518;49.398;2022-09-03T06:03:39;83.30;;;52.10;;
67185;SDS011;54116;53.518;49.398;2022-09-03T06:06:06;91.60;;;54.80;;
67185;SDS011;54116;53.518;49.398;2022-09-03T06:08:33;74.30;;;44.88;;
67185;SDS011;54116;53.518;49.398;2022-09-03T06:11:02;56.40;;;31.65;;
67185;SDS011;54116;53.518;49.398;2022-09-03T06:13:29;54.22;;;30.35;;
67185;SDS011;54116;53.518;49.398;2022-09-03T06:16:02;55.72;;;32.10;;
67185;SDS011;54116;53.518;49.398;2022-09-03T06:18:30;27.13;;;15.27;;
67185;SDS011;54116;53.518;49.398;2022-09-03T06:21:04;19.60;;;10.50;;
67185;SDS011;54116;53.518;49.398;2022-09-03T06:23:32;11.73;;;4.93;;
67185;SDS011;54116;53.518;49.398;2022-09-03T06:26:05;8.82;;;3.03;;
67185;SDS011;54116;53.518;49.398;2022-09-03T06:28:33;7.13;;;2.10;;
67185;SDS011;54116;53.518;49.398;2022-09-03T06:31:03;5.57;;;2.20;;
67185;SDS011;54116;53.518;49.398;2022-09-03T06:33:31;4.80;;;1.70;;
67185;SDS011;54116;53.518;49.398;2022-09-03T06:35:59;3.45;;;1.33;;
67185;SDS011;54116;53.518;49.398;2022-09-03T06:38:27;3.10;;;1.15;;
67185;SDS011;54116;53.518;49.398;2022-09-03T06:40:57;5.15;;;1.73;;
67185;SDS011;54116;53.518;49.398;2022-09-03T06:43:29;6.00;;;1.50;;
67185;SDS011;54116;53.518;49.398;2022-09-03T06:46:01;3.83;;;1.15;;
67185;SDS011;54116;53.518;49.398;2022-09-03T06:48:32;3.95;;;1.30;;
67185;SDS011;54116;53.518;49.398;2022-09-03T06:51:00;4.55;;;1.48;;
67185;SDS011;54116;53.518;49.398;2022-09-03T06:53:29;6.80;;;2.13;;
67185;SDS011;54116;53.518;49.398;2022-09-03T06:56:00;4.57;;;1.83;;
67185;SDS011;54116;53.518;49.398;2022-09-03T06:58:32;7.38;;;1.75;;
67185;SDS011;54116;53.518;49.398;2022-09-03T07:01:15;3.85;;;1.55;;
67185;SDS011;54116;53.518;49.398;2022-09-03T07:03:44;3.75;;;1.30;;
67185;SDS011;54116;53.518;49.398;2022-09-03T07:06:13;5.63;;;1.35;;
67185;SDS011;54116;53.518;49.398;2022-09-03T07:08:41;3.70;;;1.10;;
67185;SDS011;54116;53.518;49.398;2022-09-03T07:11:09;3.38;;;1.00;;
67185;SDS011;54116;53.518;49.398;2022-09-03T07:13:39;3.17;;;0.90;;
67185;SDS011;54116;53.518;49.398;2022-09-03T07:16:08;2.65;;;0.70;;
67185;SDS011;54116;53.518;49.398;2022-09-03T07:18:37;2.58;;;0.90;;
67185;SDS011;54116;53.518;49.398;2022-09-03T07:21:07;2.03;;;0.80;;
67185;SDS011;54116;53.518;49.398;2022-09-03T07:23:37;1.77;;;0.60;;
67185;SDS011;54116;53.518;49.398;2022-09-03T07:26:05;3.92;;;0.60;;
67185;SDS011;54116;53.518;49.398;2022-09-03T07:28:34;2.13;;;0.68;;
67185;SDS011;54116;53.518;49.398;2022-09-03T07:31:11;1.98;;;0.60;;
67185;SDS011;54116;53.518;49.398;2022-09-03T07:36:09;2.15;;;0.60;;
67185;SDS011;54116;53.518;49.398;2022-09-03T07:38:39;1.73;;;0.50;;
67185;SDS011;54116;53.518;49.398;2022-09-03T07:41:07;2.45;;;0.68;;
67185;SDS011;54116;53.518;49.398;2022-09-03T07:43:35;2.72;;;0.50;;
67185;SDS011;54116;53.518;49.398;2022-09-03T07:46:11;1.67;;;0.55;;
67185;SDS011;54116;53.518;49.398;2022-09-03T07:48:41;1.42;;;0.40;;
67185;SDS011;54116;53.518;49.398;2022-09-03T07:51:08;1.88;;;0.60;;
67185;SDS011;54116;53.518;49.398;2022-09-03T07:53:34;1.10;;;0.50;;
67185;SDS011;54116;53.518;49.398;2022-09-03T07:56:05;2.38;;;0.43;;
67185;SDS011;54116;53.518;49.398;2022-09-03T07:58:33;2.08;;;0.70;;
67185;SDS011;54116;53.518;49.398;2022-09-03T08:01:14;2.40;;;0.57;;
67185;SDS011;54116;53.518;49.398;2022-09-03T08:03:43;4.18;;;0.70;;
67185;SDS011;54116;53.518;49.398;2022-09-03T08:06:13;4.22;;;0.80;;
67185;SDS011;54116;53.518;49.398;2022-09-03T08:08:40;5.65;;;0.90;;
67185;SDS011;54116;53.518;49.398;2022-09-03T08:11:07;4.85;;;0.50;;
67185;SDS011;54116;53.518;49.398;2022-09-03T08:13:39;5.82;;;0.75;;
67185;SDS011;54116;53.518;49.398;2022-09-03T08:16:08;2.92;;;0.80;;
67185;SDS011;54116;53.518;49.398;2022-09-03T08:18:36;2.42;;;0.70;;
67185;SDS011;54116;53.518;49.398;2022-09-03T08:21:04;1.35;;;0.50;;
67185;SDS011;54116;53.518;49.398;2022-09-03T08:23:38;1.92;;;0.57;;
67185;SDS011;54116;53.518;49.398;2022-09-03T08:26:06;3.03;;;0.50;;
67185;SDS011;54116;53.518;49.398;2022-09-03T08:28:33;2.80;;;0.68;;
67185;SDS011;54116;53.518;49.398;2022-09-03T08:31:04;2.05;;;0.60;;
67185;SDS011;54116;53.518;49.398;2022-09-03T08:33:37;5.97;;;0.68;;
67185;SDS011;54116;53.518;49.398;2022-09-03T08:36:06;4.55;;;0.90;;
67185;SDS011;54116;53.518;49.398;2022-09-03T08:38:44;1.83;;;0.60;;
67185;SDS011;54116;53.518;49.398;2022-09-03T08:41:12;4.43;;;0.70;;
67185;SDS011;54116;53.518;49.398;2022-09-03T08:46:08;2.28;;;0.73;;
67185;SDS011;54116;53.518;49.398;2022-09-03T08:48:35;4.65;;;0.80;;
67185;SDS011;54116;53.518;49.398;2022-09-03T08:51:01;2.97;;;0.88;;
67185;SDS011;54116;53.518;49.398;2022-09-03T08:53:34;1.88;;;0.60;;
67185;SDS011;54116;53.518;49.398;2022-09-03T08:56:11;6.85;;;0.88;;
67185;SDS011;54116;53.518;49.398;2022-09-03T08:58:44;1.30;;;0.60;;
67185;SDS011;54116;53.518;49.398;2022-09-03T09:01:24;4.22;;;0.73;;
67185;SDS011;54116;53.518;49.398;2022-09-03T09:09:48;3.10;;;0.70;;
67185;SDS011;54116;53.518;49.398;2022-09-03T09:20:41;3.25;;;0.93;;
67185;SDS011;54116;53.518;49.398;2022-09-03T09:23:17;2.15;;;0.60;;
67185;SDS011;54116;53.518;49.398;2022-09-03T09:25:50;2.05;;;0.70;;
67185;SDS011;54116;53.518;49.398;2022-09-03T09:28:23;2.42;;;0.60;;
67185;SDS011;54116;53.518;49.398;2022-09-03T09:30:53;2.50;;;0.80;;
67185;SDS011;54116;53.518;49.398;2022-09-03T09:33:21;4.35;;;0.90;;
67185;SDS011;54116;53.518;49.398;2022-09-03T09:35:48;8.25;;;0.93;;
67185;SDS011;54116;53.518;49.398;2022-09-03T09:38:25;7.30;;;1.00;;
67185;SDS011;54116;53.518;49.398;2022-09-03T09:41:06;2.13;;;0.82;;
67185;SDS011;54116;53.518;49.398;2022-09-03T09:43:46;4.75;;;0.90;;
67185;SDS011;54116;53.518;49.398;2022-09-03T09:46:14;4.00;;;0.93;;
67185;SDS011;54116;53.518;49.398;2022-09-03T09:48:49;1.90;;;0.85;;
67185;SDS011;54116;53.518;49.398;2022-09-03T09:51:26;2.42;;;0.90;;
67185;SDS011;54116;53.518;49.398;2022-09-03T09:54:01;4.00;;;1.08;;
67185;SDS011;54116;53.518;49.398;2022-09-03T09:56:38;2.45;;;0.80;;
67185;SDS011;54116;53.518;49.398;2022-09-03T09:59:08;3.65;;;0.93;;
67185;SDS011;54116;53.518;49.398;2022-09-03T10:01:42;2.75;;;0.75;;
67185;SDS011;54116;53.518;49.398;2022-09-03T10:06:54;2.75;;;0.80;;
67185;SDS011;54116;53.518;49.398;2022-09-03T10:09:28;2.85;;;0.80;;
67185;SDS011;54116;53.518;49.398;2022-09-03T10:12:02;2.30;;;0.82;;
67185;SDS011;54116;53.518;49.398;2022-09-03T10:14:35;2.70;;;0.90;;
67185;SDS011;54116;53.518;49.398;2022-09-03T10:17:13;2.40;;;1.00;;
67185;SDS011;54116;53.518;49.398;2022-09-03T10:22:54;3.42;;;0.82;;
67185;SDS011;54116;53.518;49.398;2022-09-03T10:28:26;4.07;;;0.80;;
67185;SDS011;54116;53.518;49.398;2022-09-03T10:31:01;4.50;;;0.80;;
67185;SDS011;54116;53.518;49.398;2022-09-03T10:33:40;3.55;;;0.80;;
67185;SDS011;54116;53.518;49.398;2022-09-03T10:36:17;3.28;;;0.90;;
67185;SDS011;54116;53.518;49.398;2022-09-03T10:38:51;2.70;;;0.73;;
67185;SDS011;54116;53.518;49.398;2022-09-03T10:41:33;3.22;;;0.95;;
67185;SDS011;54116;53.518;49.398;2022-09-03T10:44:22;5.63;;;0.88;;
67185;SDS011;54116;53.518;49.398;2022-09-03T10:50:02;5.20;;;1.10;;
67185;SDS011;54116;53.518;49.398;2022-09-03T10:52:43;2.25;;;0.85;;
67185;SDS011;54116;53.518;49.398;2022-09-03T10:55:46;3.42;;;0.95;;
67185;SDS011;54116;53.518;49.398;2022-09-03T11:07:02;3.53;;;1.08;;
67185;SDS011;54116;53.518;49.398;2022-09-03T11:09:34;4.03;;;1.00;;
67185;SDS011;54116;53.518;49.398;2022-09-03T11:12:04;4.30;;;1.25;;
67185;SDS011;54116;53.518;49.398;2022-09-03T11:14:39;4.32;;;1.23;;
67185;SDS011;54116;53.518;49.398;2022-09-03T11:17:13;4.63;;;1.30;;
67185;SDS011;54116;53.518;49.398;2022-09-03T11:19:47;3.92;;;1.08;;
67185;SDS011;54116;53.518;49.398;2022-09-03T11:22:20;3.78;;;1.23;;
67185;SDS011;54116;53.518;49.398;2022-09-03T11:24:53;4.43;;;1.30;;
67185;SDS011;54116;53.518;49.398;2022-09-03T11:30:11;4.40;;;1.42;;
67185;SDS011;54116;53.518;49.398;2022-09-03T11:32:41;4.22;;;1.27;;
67185;SDS011;54116;53.518;49.398;2022-09-03T11:35:14;3.30;;;1.30;;
67185;SDS011;54116;53.518;49.398;2022-09-03T11:37:59;4.53;;;1.75;;
67185;SDS011;54116;53.518;49.398;2022-09-03T11:40:31;3.95;;;1.30;;
67185;SDS011;54116;53.518;49.398;2022-09-03T11:43:06;3.92;;;1.40;;
67185;SDS011;54116;53.518;49.398;2022-09-03T11:45:38;3.67;;;1.15;;
67185;SDS011;54116;53.518;49.398;2022-09-03T11:48:18;6.00;;;1.60;;
67185;SDS011;54116;53.518;49.398;2022-09-03T11:54:03;3.92;;;1.40;;
67185;SDS011;54116;53.518;49.398;2022-09-03T11:56:50;4.35;;;1.65;;
67185;SDS011;54116;53.518;49.398;2022-09-03T11:59:30;5.90;;;1.35;;
67185;SDS011;54116;53.518;49.398;2022-09-03T12:02:04;3.83;;;1.30;;
67185;SDS011;54116;53.518;49.398;2022-09-03T12:04:45;4.93;;;1.23;;
67185;SDS011;54116;53.518;49.398;2022-09-03T12:07:21;5.07;;;1.40;;
67185;SDS011;54116;53.518;49.398;2022-09-03T12:17:49;3.15;;;1.20;;
67185;SDS011;54116;53.518;49.398;2022-09-03T12:20:37;6.07;;;1.85;;
67185;SDS011;54116;53.518;49.398;2022-09-03T12:23:03;4.90;;;1.58;;
67185;SDS011;54116;53.518;49.398;2022-09-03T12:25:29;3.03;;;1.17;;
67185;SDS011;54116;53.518;49.398;2022-09-03T12:27:56;3.38;;;1.23;;
67185;SDS011;54116;53.518;49.398;2022-09-03T12:33:02;4.63;;;1.30;;
67185;SDS011;54116;53.518;49.398;2022-09-03T12:35:32;3.55;;;1.27;;
67185;SDS011;54116;53.518;49.398;2022-09-03T12:37:58;4.32;;;1.20;;
67185;SDS011;54116;53.518;49.398;2022-09-03T12:40:25;5.63;;;1.48;;
67185;SDS011;54116;53.518;49.398;2022-09-03T12:42:54;3.70;;;1.20;;
67185;SDS011;54116;53.518;49.398;2022-09-03T12:45:22;6.95;;;2.70;;
67185;SDS011;54116;53.518;49.398;2022-09-03T12:47:50;11.65;;;5.82;;
67185;SDS011;54116;53.518;49.398;2022-09-03T12:50:18;6.93;;;1.63;;
67185;SDS011;54116;53.518;49.398;2022-09-03T12:52:53;4.72;;;2.00;;
67185;SDS011;54116;53.518;49.398;2022-09-03T12:58:00;5.90;;;1.60;;
67185;SDS011;54116;53.518;49.398;2022-09-03T13:00:33;3.78;;;1.40;;
67185;SDS011;54116;53.518;49.398;2022-09-03T13:03:10;5.68;;;1.70;;
67185;SDS011;54116;53.518;49.398;2022-09-03T13:05:43;5.00;;;1.80;;
67185;SDS011;54116;53.518;49.398;2022-09-03T13:08:14;6.20;;;1.98;;
67185;SDS011;54116;53.518;49.398;2022-09-03T13:10:52;7.00;;;1.60;;
67185;SDS011;54116;53.518;49.398;2022-09-03T13:13:22;5.00;;;1.63;;
67185;SDS011;54116;53.518;49.398;2022-09-03T13:16:45;4.40;;;1.73;;
67185;SDS011;54116;53.518;49.398;2022-09-03T13:23:56;3.88;;;1.50;;
67185;SDS011;54116;53.518;49.398;2022-09-03T13:27:03;6.05;;;2.10;;
67185;SDS011;54116;53.518;49.398;2022-09-03T13:29:46;8.02;;;2.63;;
67185;SDS011;54116;53.518;49.398;2022-09-03T13:35:36;5.18;;;1.42;;
67185;SDS011;54116;53.518;49.398;2022-09-03T13:46:40;7.38;;;2.30;;
67185;SDS011;54116;53.518;49.398;2022-09-03T13:55:08;6.13;;;1.77;;
67185;SDS011;54116;53.518;49.398;2022-09-03T13:57:46;5.95;;;1.60;;
67185;SDS011;54116;53.518;49.398;2022-09-03T14:00:22;5.78;;;2.00;;
67185;SDS011;54116;53.518;49.398;2022-09-03T14:03:22;6.22;;;2.30;;
67185;SDS011;54116;53.518;49.398;2022-09-03T14:20:21;4.40;;;1.70;;
67185;SDS011;54116;53.518;49.398;2022-09-03T14:23:16;7.60;;;2.03;;
67185;SDS011;54116;53.518;49.398;2022-09-03T14:26:04;6.43;;;2.03;;
67185;SDS011;54116;53.518;49.398;2022-09-03T14:28:35;10.18;;;2.20;;
67185;SDS011;54116;53.518;49.398;2022-09-03T14:36:18;9.63;;;2.60;;
67185;SDS011;54116;53.518;49.398;2022-09-03T14:42:02;6.13;;;2.47;;
67185;SDS011;54116;53.518;49.398;2022-09-03T14:45:08;6.80;;;2.20;;
67185;SDS011;54116;53.518;49.398;2022-09-03T15:08:07;11.82;;;4.00;;
67185;SDS011;54116;53.518;49.398;2022-09-03T15:10:36;46.63;;;17.70;;
67185;SDS011;54116;53.518;49.398;2022-09-03T15:13:10;14.77;;;5.63;;
67185;SDS011;54116;53.518;49.398;2022-09-03T15:21:12;10.88;;;2.25;;
67185;SDS011;54116;53.518;49.398;2022-09-03T15:31:50;9.27;;;2.60;;
67185;SDS011;54116;53.518;49.398;2022-09-03T15:34:58;12.02;;;2.47;;
67185;SDS011;54116;53.518;49.398;2022-09-03T15:37:41;8.15;;;2.80;;
67185;SDS011;54116;53.518;49.398;2022-09-03T15:40:30;13.05;;;3.17;;
67185;SDS011;54116;53.518;49.398;2022-09-03T15:43:07;12.07;;;2.83;;
67185;SDS011;54116;53.518;49.398;2022-09-03T15:45:38;9.80;;;2.75;;
67185;SDS011;54116;53.518;49.398;2022-09-03T15:53:36;6.35;;;2.50;;
67185;SDS011;54116;53.518;49.398;2022-09-03T15:59:02;6.65;;;2.10;;
67185;SDS011;54116;53.518;49.398;2022-09-03T16:01:44;11.10;;;2.88;;
67185;SDS011;54116;53.518;49.398;2022-09-03T16:04:19;8.45;;;2.70;;
67185;SDS011;54116;53.518;49.398;2022-09-03T16:07:09;10.25;;;2.75;;
67185;SDS011;54116;53.518;49.398;2022-09-03T16:12:51;8.85;;;2.45;;
67185;SDS011;54116;53.518;49.398;2022-09-03T16:15:26;9.05;;;2.75;;
67185;SDS011;54116;53.518;49.398;2022-09-03T16:21:03;9.13;;;2.80;;
67185;SDS011;54116;53.518;49.398;2022-09-03T16:26:42;10.95;;;2.83;;
67185;SDS011;54116;53.518;49.398;2022-09-03T16:29:23;14.85;;;2.88;;
67185;SDS011;54116;53.518;49.398;2022-09-03T16:45:49;8.85;;;3.45;;
67185;SDS011;54116;53.518;49.398;2022-09-03T16:51:26;8.75;;;3.42;;
67185;SDS011;54116;53.518;49.398;2022-09-03T17:00:14;8.38;;;3.17;;
67185;SDS011;54116;53.518;49.398;2022-09-03T17:03:09;9.18;;;3.30;;
67185;SDS011;54116;53.518;49.398;2022-09-03T17:08:47;10.90;;;3.90;;
67185;SDS011;54116;53.518;49.398;2022-09-03T17:26:09;9.80;;;4.63;;
67185;SDS011;54116;53.518;49.398;2022-09-03T17:40:05;8.70;;;3.00;;
67185;SDS011;54116;53.518;49.398;2022-09-03T17:45:15;9.50;;;3.55;;
67185;SDS011;54116;53.518;49.398;2022-09-03T17:48:40;8.88;;;3.28;;
67185;SDS011;54116;53.518;49.398;2022-09-03T17:50:55;8.50;;;3.67;;
67185;SDS011;54116;53.518;49.398;2022-09-03T17:59:01;10.75;;;3.35;;
67185;SDS011;54116;53.518;49.398;2022-09-03T18:01:28;8.30;;;3.30;;
67185;SDS011;54116;53.518;49.398;2022-09-03T18:07:26;7.68;;;3.10;;
67185;SDS011;54116;53.518;49.398;2022-09-03T18:10:18;9.82;;;3.33;;
67185;SDS011;54116;53.518;49.398;2022-09-03T18:12:50;8.02;;;3.33;;
67185;SDS011;54116;53.518;49.398;2022-09-03T18:15:54;9.40;;;3.50;;
67185;SDS011;54116;53.518;49.398;2022-09-03T18:18:31;9.38;;;3.70;;
67185;SDS011;54116;53.518;49.398;2022-09-03T18:21:00;11.55;;;3.25;;
67185;SDS011;54116;53.518;49.398;2022-09-03T18:24:01;11.95;;;3.60;;
67185;SDS011;54116;53.518;49.398;2022-09-03T18:26:56;9.27;;;3.17;;
67185;SDS011;54116;53.518;49.398;2022-09-03T18:30:00;10.93;;;3.13;;
67185;SDS011;54116;53.518;49.398;2022-09-03T18:32:50;10.05;;;3.42;;
67185;SDS011;54116;53.518;49.398;2022-09-03T18:35:35;9.85;;;3.80;;
67185;SDS011;54116;53.518;49.398;2022-09-03T18:38:24;8.70;;;3.40;;
67185;SDS011;54116;53.518;49.398;2022-09-03T18:44:08;10.43;;;3.70;;
67185;SDS011;54116;53.518;49.398;2022-09-03T18:47:01;9.25;;;3.70;;
67185;SDS011;54116;53.518;49.398;2022-09-03T18:52:58;10.05;;;3.92;;
67185;SDS011;54116;53.518;49.398;2022-09-03T18:58:53;8.18;;;3.70;;
67185;SDS011;54116;53.518;49.398;2022-09-03T19:01:42;11.10;;;4.05;;
67185;SDS011;54116;53.518;49.398;2022-09-03T19:07:36;8.65;;;3.55;;
67185;SDS011;54116;53.518;49.398;2022-09-03T19:10:33;9.73;;;3.45;;
67185;SDS011;54116;53.518;49.398;2022-09-03T19:13:36;11.90;;;3.78;;
67185;SDS011;54116;53.518;49.398;2022-09-03T19:16:25;11.65;;;3.50;;
67185;SDS011;54116;53.518;49.398;2022-09-03T19:19:19;10.20;;;3.85;;
67185;SDS011;54116;53.518;49.398;2022-09-03T19:22:22;9.02;;;3.63;;
67185;SDS011;54116;53.518;49.398;2022-09-03T19:25:14;10.02;;;3.47;;
67185;SDS011;54116;53.518;49.398;2022-09-03T19:28:06;10.82;;;3.72;;
67185;SDS011;54116;53.518;49.398;2022-09-03T19:31:06;8.15;;;3.47;;
67185;SDS011;54116;53.518;49.398;2022-09-03T19:37:08;9.75;;;3.45;;
67185;SDS011;54116;53.518;49.398;2022-09-03T19:46:35;11.00;;;3.90;;
67185;SDS011;54116;53.518;49.398;2022-09-03T19:53:01;6.97;;;3.40;;
67185;SDS011;54116;53.518;49.398;2022-09-03T19:55:52;10.00;;;3.30;;
67185;SDS011;54116;53.518;49.398;2022-09-03T20:01:33;10.85;;;3.90;;
67185;SDS011;54116;53.518;49.398;2022-09-03T20:04:19;9.13;;;3.33;;
67185;SDS011;54116;53.518;49.398;2022-09-03T20:07:10;7.95;;;3.53;;
67185;SDS011;54116;53.518;49.398;2022-09-03T20:09:55;8.82;;;3.22;;
67185;SDS011;54116;53.518;49.398;2022-09-03T20:12:46;8.13;;;3.38;;